Decota, West Virginia
Current Conditions -  °F | °C
As of 8:54 PM on Sunday 25 Jan 2015 (Local Time) from KCRW Reporting Station
Light Rain Light Rain  
Wind Chill: 41°   Ceiling: 5500
Heat Index: 41°   Visibility: 10mi
Dew Point: 36°   Wind: 3mph
Humidity: 82%   Direction: 120°ESE
Pressure: 29.72"   Gusts: NA
Location:  38.0912°N, 81.4436°W
Report Text: KCRW 260154Z 12003KT 10SM -RA OVC055 05/02 A2972 RMK AO2 RAB51 SLP067 P0000 T00500022
Loading
Personal Weather Stations






























Interactive Weather Map New forecast layout! Learn more

10-Day Weather Forecast

Advertisements
Track Severe Weather on mobile